Time;durP1;ratioP1;P1;durP2;ratioP2;P2;SDS_P1;SDS_P2;PMS_P1;PMS_P2;Temp;Humidity;BMP_temperature;BMP_pressure;BME280_temperature;BME280_humidity;BME280_pressure;Samples;Min_cycle;Max_cycle;Signal;HPM_P1;HPM_P2
2021/12/17 12:05:44;;;;;;;;;52.75;38.25;;;;;8.46;77.30;103183.88;5088436;27;45407;-74
2021/12/17 12:08:32;;;;;;;;;37.75;33.00;;;;;8.84;78.28;103192.69;5074137;27;45404;-73
2021/12/17 12:11:16;;;;;;;;;48.00;35.50;;;;;9.19;75.19;103190.88;5071723;27;45549;-74
2021/12/17 12:13:44;;;;;;;;;38.75;34.00;;;;;9.41;74.34;103176.19;5070794;28;45617;-73
2021/12/17 12:16:31;;;;;;;;;41.25;31.00;;;;;9.52;72.69;103164.50;5080578;27;46028;-75
2021/12/17 12:19:07;;;;;;;;;30.50;30.25;;;;;9.73;71.56;103169.81;5073018;27;45866;-73
2021/12/17 12:21:36;;;;;;;;;45.00;35.25;;;;;9.82;71.33;103166.66;5068878;27;45493;-74
2021/12/17 12:24:13;;;;;;;;;35.75;29.00;;;;;9.84;70.59;103162.41;5069711;28;45510;-75
2021/12/17 12:26:42;;;;;;;;;37.75;29.50;;;;;9.66;70.38;103112.78;5071011;27;45540;-74
2021/12/17 12:29:12;;;;;;;;;42.75;34.75;;;;;10.04;70.25;103160.66;5068892;27;45587;-74
2021/12/17 12:31:40;;;;;;;;;40.00;33.00;;;;;10.12;70.58;103162.75;5069215;27;45563;-70
2021/12/17 12:34:13;;;;;;;;;39.00;33.00;;;;;10.17;69.89;103152.47;5070609;27;45421;-67
2021/12/17 12:36:58;;;;;;;;;36.50;30.00;;;;;10.32;69.33;103152.25;5068966;27;46080;-69
2021/12/17 12:39:30;;;;;;;;;36.25;30.25;;;;;10.31;68.49;103148.75;5072856;27;45530;-72
2021/12/17 12:41:56;;;;;;;;;31.50;29.25;;;;;10.34;68.32;103148.88;5068805;28;45413;-66
2021/12/17 12:44:40;;;;;;;;;38.00;30.25;;;;;10.35;67.31;103147.16;5070107;27;45836;-67
2021/12/17 12:47:07;;;;;;;;;37.25;29.75;;;;;10.37;67.90;103129.78;5067126;27;46004;-68
2021/12/17 12:50:07;;;;;;;;;33.50;29.75;;;;;10.39;67.79;103123.78;5070518;28;45494;-68
2021/12/17 12:52:40;;;;;;;;;39.75;32.00;;;;;10.46;67.15;103127.53;5068441;28;45715;-68
2021/12/17 12:55:26;;;;;;;;;37.00;30.25;;;;;10.42;67.06;103125.63;5069930;28;45735;-68
2021/12/17 12:58:11;;;;;;;;;34.25;32.00;;;;;10.47;66.93;103131.94;5070035;28;45827;-66
2021/12/17 13:00:46;;;;;;;;;34.25;27.50;;;;;10.43;66.35;103108.19;5069202;27;45807;-68
2021/12/17 13:03:19;;;;;;;;;33.75;29.25;;;;;10.64;66.53;103131.75;5071124;27;45334;-68
2021/12/17 13:05:47;;;;;;;;;36.25;29.00;;;;;10.61;65.74;103119.41;5092166;27;45513;-68
2021/12/17 13:08:14;;;;;;;;;36.25;30.00;;;;;10.76;66.32;103130.47;5079480;27;46485;-69
2021/12/17 13:10:49;;;;;;;;;35.25;26.25;;;;;10.73;65.52;103119.00;5088858;27;45462;-68
2021/12/17 13:24:14;;;;;;;;;35.75;29.00;;;;;10.82;64.40;103103.63;5079632;28;45300;-69
2021/12/17 13:26:47;;;;;;;;;33.50;27.00;;;;;10.70;65.00;103106.66;5082549;28;45496;-69
2021/12/17 13:29:24;;;;;;;;;31.50;28.50;;;;;10.77;64.09;103120.88;5079644;28;46398;-70
2021/12/17 13:32:01;;;;;;;;;41.50;33.25;;;;;10.78;64.67;103120.06;5074912;28;45504;-70
2021/12/17 13:34:39;;;;;;;;;51.50;40.50;;;;;10.84;66.48;103117.66;5076819;28;45464;-68
2021/12/17 13:37:10;;;;;;;;;86.33;77.33;;;;;11.03;70.02;103125.44;5073298;28;45534;-69
2021/12/17 13:39:39;;;;;;;;;51.75;41.00;;;;;11.22;66.41;103133.97;5061361;28;45425;-70
2021/12/17 13:42:07;;;;;;;;;30.00;27.50;;;;;10.99;64.48;103092.06;5079682;28;45351;-69
2021/12/17 13:44:41;;;;;;;;;30.75;26.50;;;;;11.18;63.39;103132.09;5079128;28;45248;-70
2021/12/17 13:47:18;;;;;;;;;43.25;32.25;;;;;11.08;65.45;103116.81;5079340;28;45343;-68
2021/12/17 13:49:59;;;;;;;;;43.50;34.75;;;;;11.17;65.13;103122.44;5078919;28;45602;-68
2021/12/17 13:52:27;;;;;;;;;38.25;31.50;;;;;11.20;63.21;103119.91;5060637;28;45448;-69
2021/12/17 13:54:55;;;;;;;;;26.75;25.50;;;;;11.28;62.97;103120.22;5079132;27;45383;-69
2021/12/17 13:57:24;;;;;;;;;33.50;27.00;;;;;11.14;62.98;103103.97;5079516;28;45204;-68
2021/12/17 13:59:51;;;;;;;;;28.00;25.00;;;;;11.09;63.24;103110.78;5076440;28;46296;-70
2021/12/17 14:02:22;;;;;;;;;33.75;27.50;;;;;11.03;63.26;103104.47;5074421;28;45706;-70
2021/12/17 14:05:00;;;;;;;;;32.25;29.75;;;;;11.04;66.34;103111.47;5077188;27;45648;-73
2021/12/17 14:07:29;;;;;;;;;29.25;21.00;;;;;11.10;63.93;103100.31;5056207;28;45545;-68
2021/12/17 14:10:08;;;;;;;;;28.50;23.75;;;;;11.10;63.13;103099.44;5074263;28;46087;-70
2021/12/17 14:12:37;;;;;;;;;29.50;26.00;;;;;11.02;63.45;103101.75;5074008;28;45515;-70
2021/12/17 14:15:05;;;;;;;;;30.25;25.50;;;;;10.98;64.25;103098.13;5074188;28;45442;-70
2021/12/17 14:17:36;;;;;;;;;31.75;25.75;;;;;11.03;63.90;103093.06;5075251;27;45365;-70
2021/12/17 14:20:14;;;;;;;;;33.50;27.75;;;;;11.15;63.70;103104.03;5076387;27;45676;-70
2021/12/17 14:22:42;;;;;;;;;25.50;23.50;;;;;11.21;64.34;103100.72;5076628;28;45738;-70
2021/12/17 14:25:24;;;;;;;;;27.50;23.25;;;;;10.97;63.80;103064.00;5058184;28;45642;-70
2021/12/17 14:27:50;;;;;;;;;26.25;22.75;;;;;11.13;63.57;103097.81;5073231;28;45594;-70
2021/12/17 14:30:16;;;;;;;;;32.00;24.00;;;;;11.09;63.63;103080.19;5074346;28;45658;-71
2021/12/17 14:32:44;;;;;;;;;23.50;21.75;;;;;10.98;64.67;103057.91;5075329;27;46081;-71
2021/12/17 14:35:10;;;;;;;;;30.00;25.75;;;;;10.98;63.60;103053.53;5077024;28;45505;-69
2021/12/17 14:37:54;;;;;;;;;29.75;22.75;;;;;11.17;63.46;103099.72;5056114;28;45937;-68
2021/12/17 14:40:25;;;;;;;;;29.75;24.75;;;;;10.93;62.67;103057.72;5074584;28;45776;-74
2021/12/17 14:42:54;;;;;;;;;29.75;26.25;;;;;11.07;63.42;103092.34;5060598;28;45823;-74
2021/12/17 14:45:22;;;;;;;;;28.50;23.50;;;;;10.70;63.69;103041.16;5075085;27;45779;-67
2021/12/17 14:47:55;;;;;;;;;22.25;19.25;;;;;11.00;63.30;103096.44;5074404;28;45472;-70
2021/12/17 15:01:36;;;;;;;;;20.75;17.75;;;;;10.97;64.53;103082.34;5074389;28;45805;-68
2021/12/17 15:04:00;;;;;;;;;21.75;19.75;;;;;10.93;63.89;103069.94;5075948;28;45652;-74
2021/12/17 15:06:27;;;;;;;;;23.75;19.75;;;;;10.56;63.80;103019.66;5060817;28;45311;-73
2021/12/17 15:08:52;;;;;;;;;27.25;22.25;;;;;10.72;63.22;103065.66;5074540;28;45674;-73
2021/12/17 15:11:28;;;;;;;;;19.00;17.00;;;;;10.80;65.57;103086.94;5075014;28;45627;-79
2021/12/17 15:13:54;;;;;;;;;20.50;20.00;;;;;10.78;64.12;103089.50;5074301;28;45523;-75
2021/12/17 15:16:20;;;;;;;;;17.00;16.75;;;;;9.86;64.20;102943.50;5078848;28;45425;-73
2021/12/17 15:18:46;;;;;;;;;22.25;20.50;;;;;10.40;64.50;103026.00;5077328;28;45771;-75
2021/12/17 15:21:11;;;;;;;;;22.25;20.50;;;;;10.18;64.31;102982.34;5056422;28;46457;-74
2021/12/17 15:23:37;;;;;;;;;22.50;17.50;;;;;10.17;65.03;102993.63;5074256;28;45785;-75
2021/12/17 15:26:03;;;;;;;;;21.50;19.00;;;;;10.35;64.82;103027.56;5056523;28;45461;-75
2021/12/17 15:28:29;;;;;;;;;24.00;22.00;;;;;10.75;64.63;103110.38;5075243;28;45377;-75
2021/12/17 15:30:58;;;;;;;;;21.50;18.25;;;;;10.72;64.69;103106.72;5074452;28;46315;-75
2021/12/17 15:33:24;;;;;;;;;22.25;21.50;;;;;10.42;64.52;103075.84;5074763;28;45456;-74
2021/12/17 15:35:51;;;;;;;;;21.25;21.25;;;;;10.42;64.29;103065.38;5074537;28;45734;-75
2021/12/17 15:38:17;;;;;;;;;23.00;20.00;;;;;10.63;64.77;103120.38;5074334;28;45410;-73
2021/12/17 15:40:46;;;;;;;;;22.00;21.00;;;;;10.43;64.67;103101.22;5074610;28;45447;-74
2021/12/17 15:43:13;;;;;;;;;25.50;21.75;;;;;10.46;64.78;103114.41;5078419;28;45429;-74
2021/12/17 15:45:41;;;;;;;;;21.75;20.50;;;;;10.16;65.26;103062.56;5078421;28;45338;-73
2021/12/17 15:48:09;;;;;;;;;25.00;21.00;;;;;10.35;65.21;103100.03;5078695;28;45333;-72
2021/12/17 15:50:36;;;;;;;;;18.25;18.00;;;;;10.00;65.35;103048.78;5075744;28;45516;-74
2021/12/17 15:53:01;;;;;;;;;22.25;19.50;;;;;10.27;65.83;103106.63;5074277;28;45667;-72
2021/12/17 15:55:29;;;;;;;;;25.00;18.50;;;;;10.21;65.72;103095.91;5074041;28;45514;-73
2021/12/17 15:57:57;;;;;;;;;21.50;18.00;;;;;10.01;66.11;103061.03;5077640;28;45307;-75
2021/12/17 16:00:27;;;;;;;;;20.50;17.00;;;;;10.16;66.16;103093.09;5055450;28;47269;-75
2021/12/17 16:02:54;;;;;;;;;23.75;22.00;;;;;9.75;65.86;103027.72;5074130;28;45661;-74
2021/12/17 16:05:23;;;;;;;;;22.75;19.50;;;;;9.76;66.27;103039.97;5076839;28;45658;-73
2021/12/17 16:07:51;;;;;;;;;19.50;17.25;;;;;9.89;66.19;103066.63;5060233;28;45402;-77
2021/12/17 16:20:59;;;;;;;;;17.50;13.75;;;;;10.17;66.85;103098.38;5077600;28;45474;-72
2021/12/17 16:21:40;;;;;;;;;21.25;17.75;;;;;10.06;66.41;103083.97;5073285;28;46076;-72
2021/12/17 16:24:06;;;;;;;;;22.75;18.75;;;;;9.34;66.36;102958.81;5073469;28;45520;-74
2021/12/17 16:26:32;;;;;;;;;19.25;18.00;;;;;10.16;66.52;103100.94;5073733;28;45437;-72
2021/12/17 16:28:57;;;;;;;;;22.00;20.00;;;;;9.45;66.81;102974.09;5077226;28;45481;-76
2021/12/17 16:31:28;;;;;;;;;22.75;17.75;;;;;10.14;66.62;103106.13;5073461;28;46165;-73
2021/12/17 16:33:58;;;;;;;;;28.25;24.75;;;;;9.81;66.75;103039.25;5073566;28;45358;-75
2021/12/17 16:36:24;;;;;;;;;21.50;19.25;;;;;10.19;66.89;103112.44;5073836;28;45398;-77
2021/12/17 16:38:50;;;;;;;;;27.25;20.50;;;;;9.60;66.58;103023.53;5074329;28;45288;-75
2021/12/17 16:41:17;;;;;;;;;16.00;13.00;;;;;9.22;66.84;102965.25;5073686;28;45387;-74
2021/12/17 16:43:44;;;;;;;;;37.75;30.50;;;;;9.61;67.68;103013.16;5055837;28;45969;-76
2021/12/17 16:46:24;;;;;;;;;66.75;50.50;;;;;10.20;68.92;103108.09;5073941;28;45906;-74
2021/12/17 16:48:52;;;;;;;;;23.50;22.75;;;;;10.20;67.47;103100.22;5073842;28;45525;-72
2021/12/17 16:51:20;;;;;;;;;25.00;21.25;;;;;10.12;67.29;103078.09;5078689;28;46130;-75
2021/12/17 16:53:49;;;;;;;;;25.50;21.50;;;;;10.15;66.96;103086.94;5081194;28;45374;-78
2021/12/17 16:56:16;;;;;;;;;24.00;21.50;;;;;9.62;67.04;102988.75;5078689;28;45432;-74
2021/12/17 16:58:42;;;;;;;;;29.50;22.25;;;;;10.03;67.17;103061.97;5081237;28;45329;-77
2021/12/17 17:01:08;;;;;;;;;11.75;11.25;;;;;9.58;67.05;102983.34;5080551;28;45455;-76
2021/12/17 17:03:33;;;;;;;;;21.50;19.25;;;;;9.94;67.17;103059.88;5079656;28;45363;-75
2021/12/17 17:05:59;;;;;;;;;22.75;19.00;;;;;9.42;67.22;102992.25;5080572;27;45473;-75
2021/12/17 17:08:25;;;;;;;;;21.00;19.00;;;;;10.11;67.73;103099.88;5079680;27;45381;-75
2021/12/17 17:10:53;;;;;;;;;27.50;20.25;;;;;9.64;67.52;103023.75;5077103;27;46579;-75
2021/12/17 17:13:20;;;;;;;;;22.50;19.75;;;;;9.83;68.36;103054.19;5077310;28;45424;-73
2021/12/17 17:15:47;;;;;;;;;24.00;21.50;;;;;10.08;67.99;103092.75;5077412;27;45507;-77
2021/12/17 17:18:15;;;;;;;;;22.50;18.00;;;;;9.50;67.93;102983.03;5059907;28;45452;-82
2021/12/17 17:20:41;;;;;;;;;57.75;43.25;;;;;10.06;69.19;103068.25;5077716;28;46528;-76
2021/12/17 17:23:07;;;;;;;;;35.50;29.50;;;;;10.29;68.39;103089.28;5077254;27;45448;-74
2021/12/17 17:25:33;;;;;;;;;29.00;24.50;;;;;9.74;67.81;102999.75;5077128;27;45602;-76
2021/12/17 17:27:59;;;;;;;;;28.50;24.75;;;;;9.65;67.95;102977.53;5076611;28;45624;-74
2021/12/17 17:30:25;;;;;;;;;23.25;21.25;;;;;9.67;67.63;102987.22;5072052;27;45433;-73
2021/12/17 17:32:51;;;;;;;;;22.75;21.75;;;;;9.81;67.13;103021.81;5077524;27;45369;-72
2021/12/17 17:35:17;;;;;;;;;26.00;24.25;;;;;10.08;67.30;103068.31;5075856;27;45375;-72
2021/12/17 17:37:43;;;;;;;;;26.25;21.75;;;;;9.91;67.74;103049.28;5078979;28;45406;-73
2021/12/17 17:40:11;;;;;;;;;20.50;19.50;;;;;9.78;67.87;103026.94;5075627;28;45721;-74
2021/12/17 17:42:37;;;;;;;;;24.50;22.50;;;;;10.13;67.86;103091.25;5076332;28;45416;-74
2021/12/17 17:45:05;;;;;;;;;27.25;22.00;;;;;10.04;67.34;103074.25;5078056;28;45390;-74
2021/12/17 17:47:31;;;;;;;;;30.00;24.50;;;;;9.71;67.73;103020.56;5076404;28;46317;-75
2021/12/17 17:49:56;;;;;;;;;21.75;20.50;;;;;10.06;67.93;103083.03;5073653;28;46361;-72
2021/12/17 17:52:22;;;;;;;;;27.00;19.75;;;;;10.05;67.84;103076.03;5071193;28;45551;-73
2021/12/17 17:54:48;;;;;;;;;28.50;23.75;;;;;10.20;67.83;103095.00;5075302;28;45327;-73
2021/12/17 17:57:14;;;;;;;;;34.00;25.25;;;;;10.14;67.58;103106.13;5075147;28;45413;-73
2021/12/17 17:59:46;;;;;;;;;31.75;25.25;;;;;9.60;67.93;103015.69;5074285;27;45529;-72
2021/12/17 18:02:13;;;;;;;;;34.50;24.50;;;;;10.03;68.12;103099.53;5075516;28;45703;-73
2021/12/17 18:04:39;;;;;;;;;24.00;22.00;;;;;9.65;68.02;103041.22;5074544;28;45538;-72
2021/12/17 18:07:09;;;;;;;;;35.00;25.00;;;;;10.00;68.28;103101.13;5074592;28;45592;-74
2021/12/17 18:09:38;;;;;;;;;37.75;27.50;;;;;9.65;68.03;103038.59;5057474;28;47182;-74
2021/12/17 18:12:05;;;;;;;;;30.50;27.00;;;;;9.98;68.04;103104.56;5058203;28;45455;-74
2021/12/17 18:14:31;;;;;;;;;30.75;26.00;;;;;9.36;68.17;103008.59;5076402;28;45354;-77
2021/12/17 18:16:56;;;;;;;;;36.00;28.00;;;;;9.95;68.17;103121.88;5079012;28;45579;-78
2021/12/17 18:19:22;;;;;;;;;27.50;24.00;;;;;9.81;68.30;103095.13;5079010;28;46277;-74
2021/12/17 18:21:48;;;;;;;;;28.50;23.50;;;;;9.91;68.54;103123.47;5078418;28;45344;-74
2021/12/17 18:24:13;;;;;;;;;28.50;26.75;;;;;9.90;68.63;103116.44;5079575;28;45394;-74
2021/12/17 18:26:39;;;;;;;;;29.25;26.50;;;;;9.39;68.64;103032.25;5079599;28;45431;-74
2021/12/17 18:29:05;;;;;;;;;34.00;29.00;;;;;9.76;68.48;103105.38;5078400;28;45472;-75
2021/12/17 18:31:30;;;;;;;;;29.75;27.25;;;;;9.71;68.55;103099.06;5078511;28;45423;-73
2021/12/17 18:33:56;;;;;;;;;34.50;27.00;;;;;9.71;68.69;103119.09;5075588;27;45605;-73
2021/12/17 18:36:22;;;;;;;;;24.25;22.75;;;;;9.32;69.09;103067.72;5074359;28;45331;-73
2021/12/17 18:38:48;;;;;;;;;39.50;30.25;;;;;9.56;69.21;103108.84;5073954;28;46317;-73
2021/12/17 18:41:22;;;;;;;;;27.75;24.00;;;;;9.69;68.95;103128.59;5055751;28;45461;-73
2021/12/17 18:46:38;;;;;;;;;30.00;28.50;;;;;9.25;69.25;103063.00;5074723;28;45484;-74
2021/12/17 18:49:05;;;;;;;;;33.50;26.50;;;;;9.70;68.89;103133.88;5074231;28;46416;-75
2021/12/17 18:51:30;;;;;;;;;31.25;27.25;;;;;9.71;68.93;103154.00;5074471;28;45399;-74
2021/12/17 18:53:56;;;;;;;;;35.75;28.75;;;;;9.68;69.38;103143.44;5076159;28;45374;-73
2021/12/17 18:56:26;;;;;;;;;35.75;30.25;;;;;9.12;68.94;103058.09;5074672;28;45636;-74
2021/12/17 18:58:55;;;;;;;;;34.75;28.75;;;;;9.63;69.35;103137.06;5077479;27;46257;-73
2021/12/17 19:01:22;;;;;;;;;34.50;30.00;;;;;9.14;69.25;103040.75;5078463;28;45504;-75
2021/12/17 19:03:48;;;;;;;;;28.75;24.00;;;;;9.53;68.97;103108.72;5057970;28;45356;-75
2021/12/17 19:06:14;;;;;;;;;35.50;29.50;;;;;9.11;69.27;103041.50;5075641;28;45914;-75
2021/12/17 19:08:40;;;;;;;;;29.75;25.75;;;;;8.67;69.13;102969.81;5078221;27;45983;-73
2021/12/17 19:11:07;;;;;;;;;32.75;28.50;;;;;9.58;69.56;103140.31;5093497;27;45490;-73
2021/12/17 19:13:33;;;;;;;;;36.75;29.25;;;;;9.59;69.19;103127.31;5081652;27;45319;-75
2021/12/17 19:15:59;;;;;;;;;35.75;29.00;;;;;9.37;69.35;103078.34;5059878;28;45446;-74
2021/12/17 19:18:36;;;;;;;;;36.25;28.50;;;;;9.57;69.67;103109.75;5077657;28;45746;-74
2021/12/17 19:21:15;;;;;;;;;32.25;29.50;;;;;9.58;69.29;103117.66;5057748;28;45645;-74
2021/12/17 19:23:41;;;;;;;;;32.67;28.67;;;;;9.53;69.12;103111.34;5077803;28;45425;-74
2021/12/17 19:26:07;;;;;;;;;36.25;28.00;;;;;9.48;69.52;103118.97;5060735;28;45859;-74
2021/12/17 19:28:34;;;;;;;;;36.75;27.75;;;;;9.42;69.77;103117.81;5058899;28;45582;-74
2021/12/17 19:31:00;;;;;;;;;33.25;26.25;;;;;9.13;69.71;103070.31;5073073;28;45464;-74
2021/12/17 19:33:26;;;;;;;;;38.25;30.50;;;;;9.36;69.93;103115.81;5071381;27;45623;-74
2021/12/17 19:35:51;;;;;;;;;29.75;26.25;;;;;8.62;69.58;102999.19;5075969;27;45295;-73
2021/12/17 19:38:17;;;;;;;;;33.00;27.75;;;;;9.13;69.76;103092.16;5077723;28;46648;-74
2021/12/17 19:40:43;;;;;;;;;34.00;28.75;;;;;9.38;69.75;103121.13;5073451;27;45433;-74
2021/12/17 19:43:08;;;;;;;;;36.75;28.00;;;;;8.87;69.90;103041.28;5073256;28;45513;-76
2021/12/17 19:45:34;;;;;;;;;31.25;27.75;;;;;9.10;69.74;103080.63;5074014;28;45386;-75
2021/12/17 19:50:37;;;;;;;;;34.25;28.00;;;;;9.10;70.13;103101.56;5077326;27;45567;-74
2021/12/17 19:53:04;;;;;;;;;38.75;29.00;;;;;9.29;70.52;103121.59;5073037;28;45337;-73
2021/12/17 19:55:29;;;;;;;;;39.75;34.25;;;;;9.29;69.51;103138.16;5074172;28;45307;-74
2021/12/17 19:57:55;;;;;;;;;39.50;30.25;;;;;8.86;69.87;103063.00;5077422;28;45351;-73
2021/12/17 20:00:22;;;;;;;;;34.25;25.50;;;;;9.22;70.06;103125.66;5077674;28;45520;-73
2021/12/17 20:02:53;;;;;;;;;38.50;30.25;;;;;8.61;69.75;103023.50;5059585;28;45476;-73
2021/12/17 20:05:21;;;;;;;;;36.50;29.75;;;;;8.52;69.74;103012.59;5077690;28;45590;-76
2021/12/17 20:07:47;;;;;;;;;33.75;29.75;;;;;8.89;70.37;103097.13;5076772;28;46515;-74
2021/12/17 20:10:14;;;;;;;;;31.00;26.75;;;;;8.43;70.01;103006.16;5074167;28;45346;-76
2021/12/17 20:12:42;;;;;;;;;43.00;32.25;;;;;9.17;69.77;103139.34;5076309;28;45843;-76
2021/12/17 20:15:10;;;;;;;;;38.50;34.00;;;;;9.12;70.19;103136.50;5056494;28;45326;-76
2021/12/17 20:17:36;;;;;;;;;33.75;30.25;;;;;9.09;70.21;103136.38;5088395;27;47438;-75
2021/12/17 20:20:04;;;;;;;;;31.00;27.25;;;;;9.00;70.39;103126.38;5073103;27;45280;-76
2021/12/17 20:22:30;;;;;;;;;35.75;31.75;;;;;9.02;70.52;103144.75;5073249;28;45823;-75
2021/12/17 20:24:57;;;;;;;;;34.75;30.75;;;;;8.34;70.72;103037.00;5072095;28;46779;-74
2021/12/17 20:27:22;;;;;;;;;37.00;33.00;;;;;8.82;70.53;103105.50;5057932;28;45550;-75
2021/12/17 20:29:50;;;;;;;;;40.50;31.75;;;;;8.91;70.43;103123.34;5076378;28;45573;-76
2021/12/17 20:32:18;;;;;;;;;40.50;33.00;;;;;9.03;70.81;103151.78;5071021;28;45507;-77
2021/12/17 20:34:44;;;;;;;;;44.50;33.25;;;;;8.99;70.76;103152.44;5061262;28;45534;-75
2021/12/17 20:37:10;;;;;;;;;43.25;32.00;;;;;8.35;70.59;103036.22;5079018;27;45272;-78
2021/12/17 20:39:38;;;;;;;;;40.50;32.50;;;;;8.98;70.45;103150.66;5076472;27;45492;-77
2021/12/17 20:42:05;;;;;;;;;38.50;33.00;;;;;8.61;70.32;103094.03;5076155;28;45731;-75
2021/12/17 20:44:30;;;;;;;;;37.00;31.00;;;;;8.69;70.48;103108.38;5058494;28;45511;-74
2021/12/17 20:46:58;;;;;;;;;36.50;32.00;;;;;8.66;71.00;103114.34;5079591;28;46397;-74
2021/12/17 20:49:24;;;;;;;;;51.00;33.75;;;;;8.85;71.09;103147.47;5075526;28;45796;-76
2021/12/17 20:51:50;;;;;;;;;42.75;33.00;;;;;8.84;70.83;103153.50;5077147;28;45457;-74
2021/12/17 20:54:18;;;;;;;;;35.25;30.75;;;;;8.63;70.94;103126.34;5078692;28;45457;-76
2021/12/17 20:56:45;;;;;;;;;37.50;33.00;;;;;8.71;70.85;103138.09;5076022;27;45519;-74
2021/12/17 20:59:11;;;;;;;;;41.50;33.00;;;;;8.44;70.61;103088.00;5076347;28;45597;-74
2021/12/17 21:01:41;;;;;;;;;40.50;33.25;;;;;8.83;71.05;103140.38;5092925;27;45486;-77
2021/12/17 21:04:07;;;;;;;;;38.00;32.50;;;;;8.29;70.76;103042.00;5076664;28;45501;-76
2021/12/17 21:06:34;;;;;;;;;41.50;36.00;;;;;8.82;70.94;103151.63;5076059;28;45552;-76
2021/12/17 21:09:02;;;;;;;;;39.00;33.25;;;;;8.82;70.96;103144.69;5078452;28;45495;-76
2021/12/17 21:11:41;;;;;;;;;45.75;35.75;;;;;8.58;70.88;103099.13;5059512;28;45768;-77
2021/12/17 21:14:16;;;;;;;;;47.50;35.50;;;;;8.62;70.21;103103.66;5075819;28;45674;-78
2021/12/17 21:16:43;;;;;;;;;47.00;33.00;;;;;8.71;71.11;103138.09;5076850;27;46456;-74
2021/12/17 21:19:11;;;;;;;;;43.00;35.50;;;;;8.50;70.69;103122.25;5075262;27;45521;-73
2021/12/17 21:21:38;;;;;;;;;39.75;33.75;;;;;8.37;70.95;103099.81;5076200;28;45524;-73
2021/12/17 21:24:05;;;;;;;;;40.75;32.00;;;;;8.42;71.20;103116.66;5078513;28;45699;-73
2021/12/17 21:26:34;;;;;;;;;43.00;34.75;;;;;8.49;71.36;103133.50;5075691;28;45462;-72
2021/12/17 21:29:00;;;;;;;;;31.50;25.75;;;;;8.53;71.83;103138.06;5076744;28;45453;-77
2021/12/17 21:31:26;;;;;;;;;43.25;33.25;;;;;7.69;72.14;102993.84;5077869;28;45877;-76
2021/12/17 21:33:54;;;;;;;;;45.25;34.50;;;;;7.85;71.53;103006.81;5059226;28;46145;-76
2021/12/17 21:36:23;;;;;;;;;40.00;32.00;;;;;7.81;70.60;102998.75;5081496;28;46184;-77
2021/12/17 21:38:50;;;;;;;;;46.25;35.75;;;;;8.59;70.90;103119.16;5063714;28;45468;-76
2021/12/17 21:41:18;;;;;;;;;35.50;32.25;;;;;8.37;70.94;103093.72;5060153;27;45775;-75
2021/12/17 21:43:45;;;;;;;;;43.75;33.25;;;;;8.76;70.72;103151.38;5080314;28;45710;-75
2021/12/17 21:46:12;;;;;;;;;42.50;33.50;;;;;8.04;70.30;103018.13;5077996;28;46593;-76
2021/12/17 21:48:38;;;;;;;;;39.25;33.25;;;;;8.76;70.58;103149.66;5078073;27;45551;-75
2021/12/17 21:51:05;;;;;;;;;40.25;34.00;;;;;8.74;70.54;103146.06;5080939;28;45453;-74
2021/12/17 21:53:31;;;;;;;;;38.50;31.50;;;;;8.74;70.52;103158.22;5056917;28;45323;-76
2021/12/17 21:55:57;;;;;;;;;39.25;32.50;;;;;8.15;70.39;103055.22;5082011;27;46237;-74
2021/12/17 21:58:23;;;;;;;;;46.00;36.25;;;;;8.75;70.38;103147.84;5081558;27;45339;-75
2021/12/17 22:00:56;;;;;;;;;34.75;33.00;;;;;8.16;70.46;103060.53;5059763;28;45768;-76
2021/12/17 22:03:30;;;;;;;;;46.00;34.75;;;;;8.38;70.42;103105.97;5077000;28;45465;-78
2021/12/17 22:05:57;;;;;;;;;44.75;33.75;;;;;7.95;70.20;103049.91;5077240;28;46622;-78
2021/12/17 22:08:24;;;;;;;;;44.25;34.25;;;;;8.57;70.75;103149.56;5080419;28;45758;-78
2021/12/17 22:10:52;;;;;;;;;44.25;31.75;;;;;7.60;70.73;102981.22;5081775;28;45449;-77
2021/12/17 22:13:18;;;;;;;;;38.75;33.75;;;;;8.58;71.35;103159.19;5081387;28;45464;-76
2021/12/17 22:15:45;;;;;;;;;33.75;31.00;;;;;8.54;71.00;103154.63;5081337;28;45464;-75
2021/12/17 22:18:11;;;;;;;;;34.75;32.00;;;;;7.67;70.52;102998.06;5079332;28;45338;-75
2021/12/17 22:23:09;;;;;;;;;37.00;31.00;;;;;7.97;70.80;103035.25;5078583;28;45488;-75
2021/12/17 22:25:35;;;;;;;;;39.50;32.75;;;;;8.59;70.31;103129.63;5070337;27;45918;-76
2021/12/17 22:28:02;;;;;;;;;43.75;33.00;;;;;8.54;69.78;103112.84;5059662;28;45871;-76
2021/12/17 22:30:28;;;;;;;;;48.00;34.50;;;;;8.60;69.77;103127.09;5075523;28;45464;-74
2021/12/17 22:32:54;;;;;;;;;33.75;31.00;;;;;8.66;69.92;103145.69;5074906;28;45473;-75
2021/12/17 22:35:21;;;;;;;;;36.00;31.00;;;;;8.36;69.51;103105.88;5056220;28;46534;-75
2021/12/17 22:37:49;;;;;;;;;39.25;31.00;;;;;8.08;70.06;103067.94;5056268;28;45544;-74
2021/12/17 22:40:23;;;;;;;;;31.50;29.00;;;;;8.53;70.02;103147.63;5060545;28;45406;-75
2021/12/17 22:42:49;;;;;;;;;39.00;32.25;;;;;8.06;69.93;103069.59;5060931;28;45848;-75
2021/12/17 22:45:16;;;;;;;;;45.00;33.50;;;;;8.28;69.50;103105.50;5078305;28;46175;-76
2021/12/17 22:47:41;;;;;;;;;40.50;30.75;;;;;7.94;69.60;103045.50;5078254;27;45465;-75
2021/12/17 22:50:08;;;;;;;;;37.50;31.25;;;;;7.77;69.84;103044.66;5077812;27;45490;-73
2021/12/17 22:52:34;;;;;;;;;30.50;25.50;;;;;8.18;69.28;103102.34;5070887;28;45338;-74
2021/12/17 22:55:00;;;;;;;;;41.25;32.50;;;;;7.69;69.78;103013.78;5079011;27;45345;-75
2021/12/17 22:57:26;;;;;;;;;39.75;31.00;;;;;7.84;69.67;103053.69;5079796;28;45397;-73
2021/12/17 22:59:51;;;;;;;;;36.25;32.25;;;;;8.23;69.34;103117.44;5076647;28;45393;-76
2021/12/17 23:02:17;;;;;;;;;36.00;31.25;;;;;7.80;69.25;103041.31;5073599;27;45402;-75
2021/12/17 23:04:49;;;;;;;;;33.50;30.00;;;;;8.34;69.19;103162.34;5074317;28;46274;-74
2021/12/17 23:07:22;;;;;;;;;36.75;31.00;;;;;7.89;69.26;103086.13;5074313;28;45798;-76
2021/12/17 23:09:47;;;;;;;;;28.00;20.50;;;;;7.99;69.40;103109.25;5089408;27;45904;-76
2021/12/17 23:12:17;;;;;;;;;30.50;27.25;;;;;7.49;69.67;103034.53;5073511;27;45857;-74
2021/12/17 23:14:49;;;;;;;;;38.75;31.25;;;;;8.28;69.27;103164.63;5075214;28;45457;-77
2021/12/17 23:17:18;;;;;;;;;29.00;23.75;;;;;8.04;69.49;103110.41;5070756;27;45490;-77
2021/12/17 23:20:09;;;;;;;;;32.00;30.25;;;;;8.03;69.41;103123.38;5075290;28;45681;-77
2021/12/17 23:22:38;;;;;;;;;35.00;31.00;;;;;8.08;69.09;103129.72;5047594;28;45467;-76
2021/12/17 23:25:06;;;;;;;;;34.50;30.00;;;;;8.28;69.15;103173.41;5052178;28;46634;-78
2021/12/17 23:27:32;;;;;;;;;35.50;30.25;;;;;7.81;68.41;103093.56;5052152;28;45544;-75
2021/12/17 23:29:59;;;;;;;;;33.50;26.50;;;;;8.20;69.14;103163.38;5056948;28;45801;-77
2021/12/17 23:32:28;;;;;;;;;37.25;31.50;;;;;8.20;69.18;103156.44;5057428;28;45684;-74
2021/12/17 23:34:59;;;;;;;;;33.50;29.50;;;;;8.20;68.84;103159.03;5058735;28;45877;-75
2021/12/17 23:37:25;;;;;;;;;31.00;28.75;;;;;7.77;68.93;103089.00;5060141;27;45572;-74
2021/12/17 23:39:54;;;;;;;;;32.75;27.25;;;;;7.82;68.87;103105.78;5059130;28;45431;-74
2021/12/17 23:42:22;;;;;;;;;32.25;29.50;;;;;8.04;69.02;103157.38;5057647;28;45405;-75
2021/12/17 23:44:49;;;;;;;;;34.00;30.25;;;;;8.12;69.22;103159.50;5056266;28;45587;-74
2021/12/17 23:47:15;;;;;;;;;32.50;27.25;;;;;7.65;68.96;103075.34;5057353;28;45671;-76
2021/12/17 23:49:40;;;;;;;;;34.50;28.00;;;;;7.71;68.81;103087.78;5054402;28;46023;-75
2021/12/17 23:52:09;;;;;;;;;36.00;26.25;;;;;8.13;68.83;103154.31;5057404;27;45584;-74
2021/12/17 23:54:35;;;;;;;;;32.50;28.25;;;;;8.05;68.87;103145.22;5056571;28;46066;-74
2021/12/17 23:57:02;;;;;;;;;27.25;24.50;;;;;8.02;68.85;103148.56;5052726;28;45331;-72
2021/12/17 23:59:28;;;;;;;;;40.25;31.00;;;;;7.34;68.89;103052.00;5061995;28;45509;-76
